Columbus Air Force Base
KCBM : now visible

Airfield :











YOU CAN JOIN US ON...

 
LOGIN :

Register | Disclaimer

   EN    FR    IT 

 









Legend :    VFR   Marginal VFR   IFR   Intensive IFR   Very Intensive IFR
Visi :
Ceiling :
>= 8 km
>= 3000ft
5 to 8 km
1000 to 3000 ft
1500m to 5 km
500 to 1000 ft
800 to 1500m
200 to 500 ft
< 800m
< 200 ft
Symbols :   Thunderstorms  Fog  Heavy snow  Heavy precipitations  Wind > 20 kt






- Airport Elevation : 219 ft


KCBM - Columbus Air Force Base

CURRENT METAR :
  • 031256Z AUTO 00000KT 10SM CLR 22/22 A2998 RMK AO2 SLP153 T02150215 $

EXPIRED METARs :
  • 031156Z AUTO 00000KT 6SM BR CLR 21/21 A2997 RMK AO2 SLP150 70059 T02080208 10217 20192 53002 $
  • 031126Z AUTO 00000KT 5SM BR CLR 20/20 A2997 RMK AO2 SLP150 $
  • 031116Z AUTO 00000KT 4SM BR CLR 20/20 A2996 RMK AO2 SLP146 $
  • 031056Z AUTO 00000KT 7SM FEW002 20/20 A2996 RMK AO2 SLP146 T02030203 $
  • 031044Z AUTO 00000KT 8SM R31C/4000FT SCT002 20/20 A2996 RMK AO2 SLP146 $
  • 031039Z AUTO 00000KT 7SM R31C/4000FT BKN002 20/20 A2996 RMK AO2 BKN V OVC SLP146 $
  • 031009Z AUTO 00000KT 8SM BKN002 19/19 A2996 RMK AO2 BKN V SCT SLP146 $

TAF AMD TAF KCBM
Valid from the 03 at 11:00 until the 04 at 15:00 UTC


031120Z 0311/0415 03006KT 8000 BR SKC QNH2994INS
BECMG 0312/0313 03006KT 9999 NSW SCT060 QNH2985INS TX30/0319Z TN20/0311Z
KZME FIR / North America



MET'MAP, your aeronautical weather chart ! - Copyright ORBIFLY December 2007 - Disclaimer

ORBIFLY MET'MAP TEAM :

Programming & Development : Alexandra Zaïnal
Concept & original design : Baudouin d'Aumeries
Assistance for programming : Marc-Olivier Méhu
Technical & hardware support : Manuel Goepfert

Contact : metmap@orbifly.com




SOURCES & CREDITS :

   NOAA       Earth
Advisory